createdAt,value
2022-07-30T00:01:14.058Z,19.95
2022-07-30T00:03:40.684Z,19.94
2022-07-30T00:06:07.162Z,19.98
2022-07-30T00:08:34.081Z,20.00
2022-07-30T00:11:00.647Z,20.01
2022-07-30T00:13:27.312Z,20.05
2022-07-30T00:15:54.199Z,20.06
2022-07-30T00:18:21.209Z,20.08
2022-07-30T00:20:48.922Z,20.09
2022-07-30T00:23:15.626Z,20.10
2022-07-30T00:25:42.231Z,20.11
2022-07-30T00:28:08.687Z,20.08
2022-07-30T00:30:35.462Z,20.09
2022-07-30T00:33:02.240Z,20.09
2022-07-30T00:35:28.875Z,20.08
2022-07-30T00:37:55.345Z,20.05
2022-07-30T00:40:22.099Z,20.03
2022-07-30T00:42:48.636Z,20.01
2022-07-30T00:45:16.916Z,20.00
2022-07-30T00:47:44.297Z,19.96
2022-07-30T00:50:13.578Z,19.96
2022-07-30T00:52:41.246Z,19.90
2022-07-30T00:55:10.242Z,19.91
2022-07-30T00:57:37.095Z,19.88
2022-07-30T01:00:09.386Z,19.87
2022-07-30T01:02:36.159Z,20.01
2022-07-30T01:05:02.748Z,19.80
2022-07-30T01:07:29.298Z,19.81
2022-07-30T01:09:55.911Z,19.79
2022-07-30T01:12:26.193Z,19.79
2022-07-30T01:14:55.417Z,19.75
2022-07-30T01:17:21.988Z,19.76
2022-07-30T01:19:56.307Z,19.75
2022-07-30T01:22:30.326Z,19.75
2022-07-30T01:25:03.512Z,19.76
2022-07-30T01:27:38.484Z,19.73
2022-07-30T01:30:06.379Z,19.72
2022-07-30T01:32:36.613Z,19.73
2022-07-30T01:35:04.687Z,19.87
2022-07-30T01:37:34.863Z,19.75
2022-07-30T01:40:01.707Z,19.73
2022-07-30T01:42:29.808Z,19.70
2022-07-30T01:44:58.435Z,19.71
2022-07-30T01:47:25.867Z,19.70
2022-07-30T01:49:54.709Z,19.70
2022-07-30T01:52:23.333Z,19.70
2022-07-30T01:54:52.374Z,19.71
2022-07-30T01:57:21.102Z,19.71
2022-07-30T01:59:52.033Z,19.72
2022-07-30T02:02:18.700Z,19.71
2022-07-30T02:04:45.299Z,19.70
2022-07-30T02:07:22.948Z,19.69
2022-07-30T02:09:58.012Z,19.74
2022-07-30T02:12:28.646Z,19.70
2022-07-30T02:15:06.700Z,19.74
2022-07-30T02:17:39.737Z,19.72
2022-07-30T02:20:13.485Z,19.66
2022-07-30T02:22:45.078Z,19.67
2022-07-30T02:25:15.216Z,19.69
2022-07-30T02:27:43.437Z,19.79
2022-07-30T02:30:11.174Z,19.66
2022-07-30T02:32:40.841Z,19.62
2022-07-30T02:35:27.392Z,19.68
2022-07-30T02:37:54.806Z,19.61
2022-07-30T02:40:23.363Z,19.63
2022-07-30T02:42:52.585Z,19.63
2022-07-30T02:45:20.092Z,19.63
2022-07-30T02:47:51.091Z,19.64
2022-07-30T02:50:20.095Z,19.63
2022-07-30T02:52:47.761Z,19.62
2022-07-30T02:55:17.819Z,19.61
2022-07-30T02:57:46.125Z,19.64
2022-07-30T03:00:13.058Z,19.64
2022-07-30T03:02:42.853Z,19.63
2022-07-30T03:05:11.598Z,19.63
2022-07-30T03:07:40.358Z,19.63
2022-07-30T03:10:08.552Z,19.61
2022-07-30T03:12:37.193Z,19.57
2022-07-30T03:15:04.134Z,19.61
2022-07-30T03:17:37.441Z,19.62
2022-07-30T03:20:08.894Z,19.61
2022-07-30T03:22:40.241Z,19.59
2022-07-30T03:25:08.207Z,19.57
2022-07-30T03:27:38.104Z,19.57
2022-07-30T03:30:06.094Z,19.55
2022-07-30T03:32:34.370Z,19.47
2022-07-30T03:35:05.895Z,19.52
2022-07-30T03:37:35.563Z,19.48
2022-07-30T03:40:02.701Z,19.47
2022-07-30T03:42:29.630Z,19.44
2022-07-30T03:44:57.311Z,19.41
2022-07-30T03:47:24.741Z,19.34
2022-07-30T03:49:52.512Z,19.35
2022-07-30T03:52:20.003Z,19.31
2022-07-30T03:54:47.565Z,19.27
2022-07-30T03:57:17.581Z,19.26
2022-07-30T03:59:51.673Z,19.22
2022-07-30T04:02:18.438Z,19.22
2022-07-30T04:04:44.889Z,19.22
2022-07-30T04:07:11.358Z,19.21
2022-07-30T04:09:37.914Z,19.21
2022-07-30T04:12:04.589Z,19.19
2022-07-30T04:14:42.342Z,19.25
2022-07-30T04:17:25.928Z,19.26
2022-07-30T04:19:56.345Z,19.27
2022-07-30T04:22:33.886Z,19.30
2022-07-30T04:25:02.222Z,19.34
2022-07-30T04:27:31.255Z,19.39
2022-07-30T04:29:57.868Z,19.43
2022-07-30T04:32:24.384Z,19.48
2022-07-30T04:34:53.859Z,19.53
2022-07-30T04:37:22.911Z,19.56
2022-07-30T04:39:51.422Z,19.57
2022-07-30T04:42:17.865Z,19.63
2022-07-30T04:44:44.343Z,19.67
2022-07-30T04:47:10.823Z,19.71
2022-07-30T04:49:39.098Z,19.73
2022-07-30T04:52:06.747Z,19.75
2022-07-30T04:54:38.916Z,19.78
2022-07-30T04:57:07.135Z,19.79
2022-07-30T04:59:37.211Z,19.79
2022-07-30T05:02:05.812Z,19.81
2022-07-30T05:04:33.342Z,19.81
2022-07-30T05:07:01.688Z,19.82
2022-07-30T05:09:31.643Z,19.82
2022-07-30T05:11:59.311Z,19.82
2022-07-30T05:14:26.868Z,19.82
2022-07-30T05:16:54.774Z,19.81
2022-07-30T05:19:21.722Z,19.83
2022-07-30T05:21:48.224Z,19.81
2022-07-30T05:24:15.079Z,19.82
2022-07-30T05:26:41.516Z,19.83
2022-07-30T05:29:08.282Z,19.82
2022-07-30T05:31:35.577Z,19.81
2022-07-30T05:34:04.970Z,19.83
2022-07-30T05:36:31.553Z,19.84
2022-07-30T05:38:58.213Z,19.83
2022-07-30T05:41:32.373Z,19.83
2022-07-30T05:44:00.240Z,19.85
2022-07-30T05:46:27.113Z,19.85
2022-07-30T05:48:53.993Z,19.86
2022-07-30T05:51:22.072Z,19.84
2022-07-30T05:53:48.602Z,19.88
2022-07-30T05:56:15.057Z,19.89
2022-07-30T05:58:41.584Z,19.90
2022-07-30T06:01:08.043Z,19.92
2022-07-30T06:03:35.113Z,19.94
2022-07-30T06:06:05.595Z,19.96
2022-07-30T06:08:32.248Z,19.96
2022-07-30T06:10:58.767Z,19.98
2022-07-30T06:13:25.772Z,20.00
2022-07-30T06:15:52.726Z,19.99
2022-07-30T06:18:19.296Z,19.98
2022-07-30T06:20:51.682Z,20.00
2022-07-30T06:23:18.380Z,20.03
2022-07-30T06:25:44.961Z,20.02
2022-07-30T06:28:35.910Z,20.00
2022-07-30T06:30:57.938Z,20.01
2022-07-30T06:33:24.338Z,20.03
2022-07-30T06:35:50.794Z,20.02
2022-07-30T06:38:17.426Z,20.01
2022-07-30T06:40:43.859Z,20.02
2022-07-30T06:43:10.395Z,20.02
2022-07-30T06:45:36.867Z,20.05
2022-07-30T06:48:03.616Z,20.05
2022-07-30T06:50:30.086Z,20.02
2022-07-30T06:52:56.512Z,20.09
2022-07-30T06:55:22.974Z,20.08
2022-07-30T06:57:49.448Z,20.09
2022-07-30T07:00:16.135Z,20.11
2022-07-30T07:02:43.369Z,20.12
2022-07-30T07:05:11.010Z,20.13
2022-07-30T07:07:42.193Z,20.13
2022-07-30T07:10:13.061Z,20.18
2022-07-30T07:12:39.519Z,20.20
2022-07-30T07:15:06.510Z,20.22
2022-07-30T07:17:32.947Z,20.25
2022-07-30T07:20:02.365Z,20.27
2022-07-30T07:22:29.757Z,20.36
2022-07-30T07:24:56.367Z,20.39
2022-07-30T07:27:22.973Z,20.45
2022-07-30T07:30:04.995Z,20.50
2022-07-30T07:32:33.678Z,20.56
2022-07-30T07:35:00.233Z,20.63
2022-07-30T07:37:27.008Z,20.69
2022-07-30T07:39:53.800Z,20.75
2022-07-30T07:42:20.235Z,20.82
2022-07-30T07:44:46.695Z,20.93
2022-07-30T07:47:13.173Z,20.99
2022-07-30T07:49:39.614Z,21.12
2022-07-30T07:52:06.501Z,21.19
2022-07-30T07:54:33.099Z,21.28
2022-07-30T07:57:00.784Z,21.34
2022-07-30T07:59:40.227Z,21.46
2022-07-30T08:02:08.061Z,21.56
2022-07-30T08:04:35.336Z,21.68
2022-07-30T08:07:02.404Z,21.74
2022-07-30T08:09:43.816Z,21.84
2022-07-30T08:12:12.510Z,21.94
2022-07-30T08:14:39.094Z,22.01
2022-07-30T08:17:06.185Z,22.10
2022-07-30T08:19:33.489Z,22.18
2022-07-30T08:22:00.108Z,22.27
2022-07-30T08:24:26.902Z,22.33
2022-07-30T08:26:53.511Z,22.43
2022-07-30T08:29:20.013Z,22.52
2022-07-30T08:31:46.497Z,22.59
2022-07-30T08:34:13.590Z,22.70
2022-07-30T08:36:40.267Z,22.78
2022-07-30T08:39:06.738Z,22.87
2022-07-30T08:41:33.340Z,22.92
2022-07-30T08:44:01.575Z,22.99
2022-07-30T08:46:31.289Z,23.10
2022-07-30T08:49:00.591Z,23.18
2022-07-30T08:51:35.305Z,23.19
2022-07-30T08:54:03.655Z,23.24
2022-07-30T08:56:32.596Z,23.28
2022-07-30T08:59:00.303Z,23.27
2022-07-30T09:01:27.547Z,23.26
2022-07-30T09:03:54.131Z,23.27
2022-07-30T09:06:20.676Z,23.26
2022-07-30T09:08:47.301Z,23.26
2022-07-30T09:11:14.078Z,23.25
2022-07-30T09:13:42.428Z,23.22
2022-07-30T09:16:20.922Z,23.32
2022-07-30T09:18:48.001Z,23.29
2022-07-30T09:21:15.758Z,23.35
2022-07-30T09:23:54.998Z,23.41
2022-07-30T09:26:21.486Z,23.44
2022-07-30T09:28:48.013Z,23.47
2022-07-30T09:31:15.834Z,23.54
2022-07-30T09:33:44.623Z,23.65
2022-07-30T09:36:18.431Z,23.73
2022-07-30T09:38:49.401Z,23.79
2022-07-30T09:41:37.687Z,23.80
2022-07-30T09:44:06.253Z,23.93
2022-07-30T09:46:45.417Z,24.00
2022-07-30T09:49:17.216Z,24.08
2022-07-30T09:51:55.805Z,24.12
2022-07-30T09:54:23.549Z,24.18
2022-07-30T09:57:25.577Z,24.31
2022-07-30T10:00:16.426Z,24.29
2022-07-30T10:02:45.339Z,24.31
2022-07-30T10:05:15.949Z,24.40
2022-07-30T10:07:52.604Z,24.47
2022-07-30T10:10:25.583Z,24.50
2022-07-30T10:13:01.175Z,24.56
2022-07-30T10:15:33.294Z,24.63
2022-07-30T10:18:02.615Z,24.71
2022-07-30T10:20:33.859Z,24.77
2022-07-30T10:23:08.084Z,24.79
2022-07-30T10:25:36.777Z,24.84
2022-07-30T10:28:17.528Z,24.80
2022-07-30T10:30:45.260Z,24.82
2022-07-30T10:33:36.265Z,24.82
2022-07-30T10:35:59.198Z,24.86
2022-07-30T10:38:32.485Z,24.83
2022-07-30T10:41:42.550Z,24.73
2022-07-30T10:44:31.163Z,24.87
2022-07-30T10:47:09.202Z,24.80
2022-07-30T10:49:41.037Z,24.78
2022-07-30T10:52:09.597Z,24.79
2022-07-30T10:54:47.229Z,24.88
2022-07-30T10:57:31.856Z,24.88
2022-07-30T11:00:00.005Z,24.93
2022-07-30T11:02:30.672Z,24.98
2022-07-30T11:05:16.095Z,25.28
2022-07-30T11:07:47.655Z,25.15
2022-07-30T11:10:37.944Z,25.31
2022-07-30T11:13:06.662Z,25.58
2022-07-30T11:15:51.571Z,25.56
2022-07-30T11:18:18.018Z,25.56
2022-07-30T11:21:20.673Z,25.75
2022-07-30T11:23:48.396Z,25.85
2022-07-30T11:26:52.612Z,26.11
2022-07-30T11:29:50.498Z,26.19
2022-07-30T11:32:28.116Z,26.33
2022-07-30T11:35:17.531Z,26.43
2022-07-30T11:38:01.932Z,26.54
2022-07-30T11:43:34.931Z,27.10
2022-07-30T11:46:07.150Z,27.01
2022-07-30T11:48:39.146Z,27.10
2022-07-30T11:51:05.919Z,27.27
2022-07-30T11:53:33.044Z,27.39
2022-07-30T11:56:02.274Z,27.57
2022-07-30T11:58:29.961Z,27.71
2022-07-30T12:01:00.822Z,27.84
2022-07-30T12:03:29.864Z,27.92
2022-07-30T12:05:56.921Z,28.08
2022-07-30T12:08:33.379Z,28.17
2022-07-30T12:11:03.123Z,28.21
2022-07-30T12:13:45.462Z,28.35
2022-07-30T12:16:16.274Z,28.41
2022-07-30T12:18:43.993Z,28.41
2022-07-30T12:21:17.289Z,28.39
2022-07-30T12:23:59.463Z,28.54
2022-07-30T12:26:29.319Z,28.48
2022-07-30T12:29:01.458Z,28.55
2022-07-30T12:31:28.415Z,28.47
2022-07-30T12:33:58.940Z,28.55
2022-07-30T12:36:26.093Z,28.62
2022-07-30T12:38:54.569Z,28.64
2022-07-30T12:41:21.964Z,28.67
2022-07-30T12:43:55.777Z,28.69
2022-07-30T12:46:27.035Z,28.77
2022-07-30T12:49:10.281Z,28.86
2022-07-30T12:51:59.733Z,28.96
2022-07-30T12:54:27.690Z,29.02
2022-07-30T12:56:59.406Z,29.19
2022-07-30T12:59:27.123Z,29.32
2022-07-30T13:01:54.440Z,29.48
2022-07-30T13:04:20.991Z,29.67
2022-07-30T13:07:10.585Z,29.89
2022-07-30T13:09:37.673Z,30.28
2022-07-30T13:12:05.266Z,29.97
2022-07-30T13:14:32.306Z,29.92
2022-07-30T13:16:59.121Z,29.94
2022-07-30T13:19:26.980Z,29.88
2022-07-30T13:21:53.571Z,29.94
2022-07-30T13:24:20.692Z,29.98
2022-07-30T13:26:47.800Z,29.98
2022-07-30T13:29:17.172Z,30.10
2022-07-30T13:31:43.902Z,30.31
2022-07-30T13:34:12.094Z,30.41
2022-07-30T13:36:38.840Z,30.51
2022-07-30T13:39:05.289Z,30.72
2022-07-30T13:41:31.730Z,30.86
2022-07-30T13:43:58.199Z,30.96
2022-07-30T13:46:24.834Z,31.11
2022-07-30T13:48:52.105Z,31.27
2022-07-30T13:51:18.810Z,31.33
2022-07-30T13:53:45.481Z,31.44
2022-07-30T13:56:12.408Z,31.36
2022-07-30T13:58:39.695Z,31.30
2022-07-30T14:01:07.037Z,31.23
2022-07-30T14:03:33.829Z,31.00
2022-07-30T14:06:10.178Z,30.82
2022-07-30T14:08:38.708Z,30.65
2022-07-30T14:11:05.259Z,30.51
2022-07-30T14:13:31.730Z,30.32
2022-07-30T14:15:58.423Z,30.16
2022-07-30T14:18:24.871Z,29.96
2022-07-30T14:20:53.580Z,29.92
2022-07-30T14:23:20.261Z,29.91
2022-07-30T14:25:46.830Z,29.82
2022-07-30T14:28:13.915Z,29.86
2022-07-30T14:30:40.380Z,29.89
2022-07-30T14:33:06.854Z,29.92
2022-07-30T14:35:33.380Z,29.84
2022-07-30T14:37:59.936Z,29.80
2022-07-30T14:40:26.440Z,29.81
2022-07-30T14:42:52.908Z,29.83
2022-07-30T14:45:23.089Z,29.87
2022-07-30T14:47:49.512Z,29.91
2022-07-30T14:50:15.947Z,29.95
2022-07-30T14:52:42.564Z,29.99
2022-07-30T14:55:09.945Z,30.04
2022-07-30T14:57:36.725Z,30.07
2022-07-30T15:00:07.488Z,30.18
2022-07-30T15:02:34.399Z,30.17
2022-07-30T15:05:00.816Z,30.17
2022-07-30T15:07:27.658Z,30.27
2022-07-30T15:09:54.055Z,30.39
2022-07-30T15:12:23.583Z,30.57
2022-07-30T15:14:53.879Z,30.83
2022-07-30T15:17:20.458Z,31.01
2022-07-30T15:19:50.304Z,31.18
2022-07-30T15:22:18.243Z,31.38
2022-07-30T15:24:44.736Z,31.49
2022-07-30T15:27:11.569Z,31.61
2022-07-30T15:29:38.213Z,31.61
2022-07-30T15:32:05.275Z,31.65
2022-07-30T15:34:34.481Z,31.63
2022-07-30T15:37:02.623Z,31.61
2022-07-30T15:39:32.222Z,31.58
2022-07-30T15:42:06.002Z,32.05
2022-07-30T15:44:32.889Z,31.73
2022-07-30T15:47:00.306Z,31.72
2022-07-30T15:49:27.806Z,31.59
2022-07-30T15:51:54.648Z,31.44
2022-07-30T15:54:23.430Z,31.32
2022-07-30T15:56:51.178Z,31.15
2022-07-30T15:59:18.014Z,31.04
2022-07-30T16:01:44.624Z,30.90
2022-07-30T16:04:19.499Z,30.80
2022-07-30T16:06:47.594Z,30.70
2022-07-30T16:09:14.681Z,30.61
2022-07-30T16:11:43.002Z,30.51
2022-07-30T16:14:10.008Z,30.32
2022-07-30T16:16:36.736Z,30.13
2022-07-30T16:19:03.358Z,29.99
2022-07-30T16:21:29.928Z,29.90
2022-07-30T16:23:56.648Z,29.87
2022-07-30T16:26:23.116Z,29.90
2022-07-30T16:28:49.882Z,29.89
2022-07-30T16:31:16.564Z,29.86
2022-07-30T16:33:43.208Z,29.86
2022-07-30T16:36:10.065Z,29.72
2022-07-30T16:38:36.594Z,29.72
2022-07-30T16:41:03.650Z,29.64
2022-07-30T16:43:31.843Z,29.61
2022-07-30T16:45:59.454Z,29.61
2022-07-30T16:48:26.642Z,29.61
2022-07-30T16:50:53.285Z,29.62
2022-07-30T16:53:20.071Z,29.51
2022-07-30T16:55:47.002Z,29.43
2022-07-30T16:58:13.652Z,29.33
2022-07-30T17:00:40.220Z,29.26
2022-07-30T17:03:06.869Z,29.12
2022-07-30T17:05:33.566Z,29.13
2022-07-30T17:08:00.186Z,29.11
2022-07-30T17:10:27.268Z,29.07
2022-07-30T17:12:56.958Z,28.99
2022-07-30T17:15:32.211Z,28.94
2022-07-30T17:18:03.050Z,28.82
2022-07-30T17:20:31.249Z,28.63
2022-07-30T17:22:57.837Z,28.53
2022-07-30T17:25:28.341Z,28.35
2022-07-30T17:27:56.263Z,28.20
2022-07-30T17:30:23.588Z,28.02
2022-07-30T17:32:50.965Z,27.84
2022-07-30T17:35:17.731Z,27.64
2022-07-30T17:37:44.359Z,27.51
2022-07-30T17:40:28.843Z,27.34
2022-07-30T17:43:03.231Z,27.16
2022-07-30T17:45:30.712Z,27.00
2022-07-30T17:47:57.853Z,26.83
2022-07-30T17:50:24.291Z,26.70
2022-07-30T17:52:50.841Z,26.56
2022-07-30T17:55:17.395Z,26.41
2022-07-30T17:57:43.804Z,26.28
2022-07-30T18:00:10.976Z,26.14
2022-07-30T18:02:37.416Z,26.01
2022-07-30T18:05:04.192Z,25.90
2022-07-30T18:07:31.088Z,25.80
2022-07-30T18:09:57.593Z,25.71
2022-07-30T18:12:24.085Z,25.64
2022-07-30T18:14:50.499Z,25.57
2022-07-30T18:17:16.932Z,25.50
2022-07-30T18:19:43.464Z,25.44
2022-07-30T18:22:10.062Z,25.40
2022-07-30T18:24:40.360Z,25.36
2022-07-30T18:27:11.586Z,25.33
2022-07-30T18:29:38.173Z,25.33
2022-07-30T18:32:05.486Z,25.33
2022-07-30T18:34:32.382Z,25.34
2022-07-30T18:36:58.877Z,25.34
2022-07-30T18:39:25.377Z,25.30
2022-07-30T18:41:51.914Z,25.26
2022-07-30T18:44:18.446Z,25.21
2022-07-30T18:46:45.463Z,25.16
2022-07-30T18:49:34.270Z,25.09
2022-07-30T18:52:00.355Z,25.02
2022-07-30T18:54:27.300Z,24.94
2022-07-30T18:56:53.750Z,24.85
2022-07-30T18:59:20.208Z,24.74
2022-07-30T19:01:46.637Z,24.64
2022-07-30T19:04:13.258Z,24.53
2022-07-30T19:06:39.945Z,24.41
2022-07-30T19:09:10.120Z,24.27
2022-07-30T19:11:45.266Z,24.14
2022-07-30T19:14:13.109Z,24.00
2022-07-30T19:16:40.586Z,23.90
2022-07-30T19:19:07.074Z,23.79
2022-07-30T19:21:33.810Z,23.66
2022-07-30T19:24:00.473Z,23.56
2022-07-30T19:26:26.978Z,23.45
2022-07-30T19:28:53.388Z,23.34
2022-07-30T19:31:19.887Z,23.21
2022-07-30T19:33:46.352Z,23.15
2022-07-30T19:36:15.095Z,23.02
2022-07-30T19:38:45.053Z,22.93
2022-07-30T19:41:11.979Z,22.83
2022-07-30T19:43:40.592Z,22.73
2022-07-30T19:46:07.083Z,22.61
2022-07-30T19:48:36.085Z,22.55
2022-07-30T19:51:03.461Z,22.45
2022-07-30T19:53:34.105Z,22.37
2022-07-30T19:56:04.405Z,22.45
2022-07-30T19:58:36.607Z,22.21
2022-07-30T20:01:03.979Z,22.10
2022-07-30T20:03:35.663Z,22.00
2022-07-30T20:06:02.258Z,21.90
2022-07-30T20:08:29.555Z,21.82
2022-07-30T20:10:57.755Z,21.75
2022-07-30T20:13:44.518Z,21.69
2022-07-30T20:16:14.311Z,21.59
2022-07-30T20:18:42.878Z,21.52
2022-07-30T20:21:15.187Z,21.47
2022-07-30T20:23:43.454Z,21.39
2022-07-30T20:26:13.700Z,21.32
2022-07-30T20:28:42.103Z,21.25
2022-07-30T20:31:08.802Z,21.20
2022-07-30T20:33:38.083Z,21.15
2022-07-30T20:36:06.087Z,21.09
2022-07-30T20:38:37.590Z,21.02
2022-07-30T20:41:09.930Z,20.99
2022-07-30T20:43:51.592Z,20.95
2022-07-30T20:46:20.332Z,20.90
2022-07-30T20:48:47.131Z,20.88
2022-07-30T20:51:14.003Z,20.82
2022-07-30T20:53:41.881Z,20.83
2022-07-30T20:56:12.211Z,20.82
2022-07-30T20:58:40.901Z,20.79
2022-07-30T21:01:07.790Z,20.77
2022-07-30T21:03:34.292Z,20.76
2022-07-30T21:06:02.596Z,20.68
2022-07-30T21:08:29.145Z,20.71
2022-07-30T21:10:57.647Z,20.70
2022-07-30T21:13:26.996Z,20.69
2022-07-30T21:16:02.355Z,20.65
2022-07-30T21:18:29.773Z,20.64
2022-07-30T21:20:57.329Z,20.60
2022-07-30T21:23:23.866Z,20.56
2022-07-30T21:26:01.139Z,20.55
2022-07-30T21:28:35.248Z,20.54
2022-07-30T21:31:07.078Z,20.51
2022-07-30T21:33:36.186Z,20.47
2022-07-30T21:36:02.721Z,20.46
2022-07-30T21:38:31.754Z,20.41
2022-07-30T21:40:58.523Z,20.43
2022-07-30T21:43:29.995Z,20.39
2022-07-30T21:45:57.628Z,20.39
2022-07-30T21:48:24.438Z,20.39
2022-07-30T21:50:51.063Z,20.39
2022-07-30T21:53:17.474Z,20.33
2022-07-30T21:55:56.886Z,20.36
2022-07-30T21:58:26.360Z,20.37
2022-07-30T22:00:54.968Z,20.36
2022-07-30T22:04:03.247Z,20.30
2022-07-30T22:06:12.679Z,20.32
2022-07-30T22:08:39.648Z,20.30
2022-07-30T22:11:09.055Z,20.29
2022-07-30T22:13:36.195Z,20.27
2022-07-30T22:16:21.325Z,20.24
2022-07-30T22:18:48.054Z,20.23
2022-07-30T22:21:14.665Z,20.18
2022-07-30T22:23:41.353Z,20.20
2022-07-30T22:26:23.702Z,20.17
2022-07-30T22:28:53.201Z,20.15
2022-07-30T22:31:20.952Z,20.13
2022-07-30T22:33:49.793Z,20.11
2022-07-30T22:36:17.828Z,20.11
2022-07-30T22:41:39.184Z,20.06
2022-07-30T22:44:06.644Z,20.02
2022-07-30T22:46:35.963Z,20.01
2022-07-30T22:49:04.416Z,19.96
2022-07-30T22:52:00.848Z,19.95
2022-07-30T22:54:18.002Z,19.91
2022-07-30T22:56:46.277Z,19.84
2022-07-30T22:59:13.664Z,19.86
2022-07-30T23:01:43.521Z,19.86
2022-07-30T23:04:10.369Z,19.85
2022-07-30T23:06:37.211Z,19.83
2022-07-30T23:09:07.643Z,19.79
2022-07-30T23:11:38.733Z,19.81
2022-07-30T23:12:29.024Z,20.09
2022-07-30T23:14:06.632Z,19.79
2022-07-30T23:16:33.102Z,19.78
2022-07-30T23:18:59.869Z,19.72
2022-07-30T23:21:26.316Z,19.74
2022-07-30T23:23:53.064Z,19.72
2022-07-30T23:26:19.593Z,19.69
2022-07-30T23:28:47.271Z,19.70
2022-07-30T23:31:13.770Z,19.67
2022-07-30T23:33:43.091Z,19.63
2022-07-30T23:36:09.839Z,19.65
2022-07-30T23:38:36.935Z,19.60
2022-07-30T23:41:04.279Z,19.59
2022-07-30T23:43:31.475Z,19.55
2022-07-30T23:45:58.182Z,19.53
2022-07-30T23:48:24.667Z,19.53
2022-07-30T23:50:51.864Z,19.51
2022-07-30T23:53:18.509Z,19.49
2022-07-30T23:55:47.585Z,19.48
2022-07-30T23:58:14.752Z,19.46
